This is the latest recevied weather packets stored in our database for station/object KD8AZC-13. If no packets are shown the sender has not sent any weather packets the latest 10 day(s).
| Time | Temp. | Humidity | Pressure | Rain* | Wind** | Luminosity | Snow |
|---|---|---|---|---|---|---|---|
| 1777717845 | 5° C | 75% | 1014.9 hPa | 0 mm | - | - | - |
| 1777716060 | 5° C | 74% | 1014.9 hPa | 0 mm | - | - | - |
| 1777715143 | 5° C | 74% | 1014.9 hPa | 0 mm | - | - | - |
| 1777713339 | 5° C | 73% | 1014.8 hPa | 0 mm | - | - | - |
| 1777709724 | 6.11° C | 73% | 1014.8 hPa | 0 mm | - | - | - |
| 1777708823 | 6.11° C | 73% | 1014.8 hPa | 0 mm | - | - | - |
| 1777705204 | 6.67° C | 72% | 1014.2 hPa | 0 mm | - | - | - |
| 1777699855 | 8.33° C | 69% | 1014.1 hPa | 0 mm | - | - | - |
| 1777695340 | 9.44° C | 70% | 1013.6 hPa | 0 mm | - | - | - |
| 1777690828 | 10.56° C | 68% | 1013.3 hPa | 0 mm | - | - | - |
| 1777687233 | 11.11° C | 63% | 1013.1 hPa | 0 mm | - | - | - |
| 1777681824 | 12.78° C | 57% | 1011.2 hPa | 0 mm | - | - | - |
| 1777679119 | 15° C | 46% | 1010.1 hPa | 0 mm | - | - | - |
| 1777677319 | 16.67° C | 40% | 1009.3 hPa | 0 mm | - | - | - |
| 1777669212 | 17.22° C | 42% | 1008.6 hPa | 0 mm | - | - | - |
| 1777665606 | 17.78° C | 42% | 1009 hPa | 0 mm | - | - | - |
| 1777663804 | 17.78° C | 40% | 1009.2 hPa | 0 mm | - | - | - |
| 1777661158 | 18.33° C | 39% | 1009.9 hPa | 0 mm | - | - | - |
| 1777659354 | 17.78° C | 40% | 1010.5 hPa | 0 mm | - | - | - |
| 1777654840 | 16.67° C | 41% | 1011.8 hPa | 0 mm | - | - | - |
| 1777652128 | 15.56° C | 49% | 1012.6 hPa | 0 mm | - | - | - |
| 1777649419 | 14.44° C | 48% | 1013.3 hPa | 0 mm | - | - | - |
| 1777646708 | 12.22° C | 61% | 1013.7 hPa | 0 mm | - | - | - |
| 1777643152 | 8.33° C | 84% | 1014.4 hPa | 0 mm | - | - | - |
| 1777634115 | 1.67° C | 93% | 1015.6 hPa | 0 mm | - | - | - |
* Rain latest hour (hover to see other rain measurements)
** Current wind speed in m/s (hover to see current wind gust speed)